This is the latest recevied weather packets stored in our database for station/object W4IFI. If no packets are shown the sender has not sent any weather packets the latest 10 day(s).
| Time | Temp. | Humidity | Pressure | Rain* | Wind** | Luminosity | Snow |
|---|---|---|---|---|---|---|---|
| 1777626003 | 2.78° C | 49% | 1014.5 hPa | 0 mm | - | - | - |
| 1777625703 | 2.78° C | 48% | 1014.5 hPa | 0 mm | - | - | - |
| 1777625403 | 3.33° C | 48% | 1014.4 hPa | 0 mm | - | - | - |
| 1777625103 | 3.33° C | 48% | 1014.3 hPa | 0 mm | - | - | - |
| 1777624803 | 3.33° C | 48% | 1014.3 hPa | 0 mm | - | - | - |
| 1777622238 | 2.22° C | 49% | 1014.3 hPa | 0 mm | - | - | - |
| 1777613703 | 2.78° C | 47% | 1013.9 hPa | 0 mm | - | - | - |
| 1777612036 | 1.67° C | 47% | 1013.8 hPa | 0 mm | - | - | - |
| 1777610403 | 2.78° C | 43% | 1013.7 hPa | 0 mm | - | - | - |
| 1777607703 | 3.89° C | 40% | 1013.4 hPa | 0 mm | - | - | - |
| 1777606203 | 5.56° C | 36% | 1013.2 hPa | 0 mm | - | - | - |
| 1777605303 | 5° C | 35% | 1013.1 hPa | 0 mm | - | - | - |
| 1777604703 | 4.44° C | 36% | 1013.1 hPa | 0 mm | - | - | - |
| 1777604103 | 3.89° C | 36% | 1013 hPa | 0 mm | - | - | - |
| 1777603038 | 7.78° C | 29% | 1012.8 hPa | 0 mm | - | - | - |
| 1777602437 | 8.89° C | 27% | 1012.6 hPa | 0 mm | - | - | - |
| 1777598404 | 11.67° C | 22% | 1012 hPa | 0 mm | - | - | - |
| 1777598103 | 11.67° C | 21% | 1012.1 hPa | 0 mm | - | - | - |
| 1777597503 | 12.22° C | 21% | 1011.9 hPa | 0 mm | - | - | - |
| 1777597338 | 12.78° C | 20% | 1011.9 hPa | 0 mm | - | - | - |
| 1777595103 | 11.67° C | 20% | 1012.1 hPa | 0 mm | - | - | - |
| 1777594203 | 13.33° C | 17% | 1011.9 hPa | 0 mm | - | - | - |
| 1777592703 | 13.33° C | 18% | 1011.7 hPa | 0 mm | - | - | - |
| 1777590603 | 14.44° C | 18% | 1011.6 hPa | 0 mm | - | - | - |
| 1777590003 | 13.89° C | 19% | 1011.6 hPa | 0 mm | - | - | - |
* Rain latest hour (hover to see other rain measurements)
** Current wind speed in m/s (hover to see current wind gust speed)